Time;durP1;ratioP1;P1;durP2;ratioP2;P2;SDS_P1;SDS_P2;PMS_P1;PMS_P2;Temp;Humidity;BMP_temperature;BMP_pressure;BME280_temperature;BME280_humidity;BME280_pressure;Samples;Min_cycle;Max_cycle;Signal;HPM_P1;HPM_P2
2024/04/01 00:01:24;;;;;;;14.70;9.30;;;;;;;-145.63;100.00;61273.97;5112257;27;20035;-67
2024/04/01 00:03:49;;;;;;;18.15;9.48;;;;;;;-145.63;100.00;61273.97;5112806;27;20035;-68
2024/04/01 00:06:15;;;;;;;13.85;9.15;;;;;;;-145.63;100.00;61273.97;5121426;27;20053;-68
2024/04/01 00:08:41;;;;;;;16.10;9.40;;;;;;;-145.63;100.00;61273.97;5111723;27;20027;-67
2024/04/01 00:11:06;;;;;;;12.63;8.98;;;;;;;-145.63;100.00;61273.97;5131966;27;20035;-66
2024/04/01 00:13:32;;;;;;;13.00;8.65;;;;;;;-145.63;100.00;61273.97;5112171;28;20471;-67
2024/04/01 00:15:58;;;;;;;12.52;9.25;;;;;;;-145.63;100.00;61273.97;5118340;27;20050;-67
2024/04/01 00:18:23;;;;;;;15.45;9.93;;;;;;;-145.63;100.00;61273.97;5121112;27;20036;-67
2024/04/01 00:20:58;;;;;;;15.38;10.27;;;;;;;-145.63;100.00;61273.97;5120207;27;20524;-69
2024/04/01 00:23:25;;;;;;;15.77;9.57;;;;;;;-145.63;100.00;61273.97;5111807;28;20066;-68
2024/04/01 00:25:50;;;;;;;16.35;9.95;;;;;;;-145.63;100.00;61273.97;5121595;27;20690;-69
2024/04/01 00:28:16;;;;;;;10.65;8.65;;;;;;;-145.63;100.00;61273.97;5129203;27;20027;-69
2024/04/01 00:30:42;;;;;;;13.23;10.10;;;;;;;-145.63;100.00;61273.97;5124163;27;20030;-69
2024/04/01 00:33:09;;;;;;;17.10;10.05;;;;;;;-145.63;100.00;61273.97;5123331;27;20484;-69
2024/04/01 00:35:42;;;;;;;14.00;10.13;;;;;;;-145.63;100.00;61273.97;5118440;27;20038;-68
2024/04/01 00:38:08;;;;;;;14.55;9.52;;;;;;;-145.63;100.00;61273.97;5111704;28;20102;-69
2024/04/01 00:40:35;;;;;;;15.20;9.63;;;;;;;-145.63;100.00;61273.97;5112157;28;20537;-67
2024/04/01 00:43:08;;;;;;;14.20;9.70;;;;;;;-145.63;100.00;61273.97;5111864;28;20081;-68
2024/04/01 00:45:42;;;;;;;11.80;9.48;;;;;;;-145.63;100.00;61273.97;5118813;28;20108;-70
2024/04/01 00:48:09;;;;;;;16.42;10.57;;;;;;;-145.63;100.00;61273.97;5123489;28;20023;-69
2024/04/01 00:50:36;;;;;;;13.30;10.38;;;;;;;-145.63;100.00;61273.97;5112680;28;20480;-68
2024/04/01 00:53:04;;;;;;;14.82;10.07;;;;;;;-145.63;100.00;61273.97;5111828;28;20397;-68
2024/04/01 00:55:33;;;;;;;16.23;10.20;;;;;;;-145.63;100.00;61273.97;5116294;27;20034;-68
2024/04/01 00:58:02;;;;;;;17.13;10.70;;;;;;;-145.63;100.00;61273.97;5097371;28;20080;-69
2024/04/01 01:00:28;;;;;;;18.35;10.57;;;;;;;-145.63;100.00;61273.97;5119114;27;20467;-68
2024/04/01 01:02:54;;;;;;;15.95;10.45;;;;;;;-145.63;100.00;61273.97;5115315;28;20324;-69
2024/04/01 01:05:21;;;;;;;16.30;11.00;;;;;;;-145.63;100.00;61273.97;5097773;28;20030;-67
2024/04/01 01:07:48;;;;;;;16.33;10.57;;;;;;;-145.63;100.00;61273.97;5136318;27;20119;-67
2024/04/01 01:10:14;;;;;;;15.35;10.35;;;;;;;-145.63;100.00;61273.97;5117738;27;20027;-67
2024/04/01 01:12:40;;;;;;;15.48;10.75;;;;;;;-145.63;100.00;61273.97;5110232;27;20039;-67
2024/04/01 01:15:06;;;;;;;13.57;10.82;;;;;;;-145.63;100.00;61273.97;5128225;27;20031;-68
2024/04/01 01:17:33;;;;;;;15.45;10.52;;;;;;;-145.63;100.00;61273.97;5100736;27;20019;-67
2024/04/01 01:19:59;;;;;;;14.73;10.55;;;;;;;-145.63;100.00;61273.97;5136503;27;20087;-67
2024/04/01 01:22:56;;;;;;;15.45;10.75;;;;;;;-145.63;100.00;61273.97;5128191;27;20110;-66
2024/04/01 01:25:22;;;;;;;19.70;10.60;;;;;;;-145.63;100.00;61273.97;5084961;27;20054;-68
2024/04/01 01:27:47;;;;;;;17.33;11.80;;;;;;;-145.63;100.00;61273.97;5121177;27;20039;-70
2024/04/01 01:30:16;;;;;;;18.20;11.65;;;;;;;-145.63;100.00;61273.97;5132589;27;20039;-68
2024/04/01 01:32:48;;;;;;;19.73;12.05;;;;;;;-145.63;100.00;61273.97;5118520;27;20027;-68
2024/04/01 01:35:20;;;;;;;15.38;10.82;;;;;;;-145.63;100.00;61273.97;5115407;28;20024;-67
2024/04/01 01:37:50;;;;;;;16.63;10.85;;;;;;;-145.63;100.00;61273.97;5118960;27;20031;-67
2024/04/01 01:40:16;;;;;;;19.02;11.13;;;;;;;-145.63;100.00;61273.97;5115274;28;20027;-69
2024/04/01 01:42:41;;;;;;;15.45;11.27;;;;;;;-145.63;100.00;61273.97;5129865;27;20391;-70
2024/04/01 01:45:07;;;;;;;16.10;10.50;;;;;;;-145.63;100.00;61273.97;5115210;28;20042;-69
2024/04/01 01:47:34;;;;;;;21.08;10.80;;;;;;;-145.63;100.00;61273.97;5124733;27;20042;-67
2024/04/01 01:50:00;;;;;;;15.07;11.40;;;;;;;-145.63;100.00;61273.97;5121639;27;20038;-70
2024/04/01 01:52:26;;;;;;;15.93;11.32;;;;;;;-145.63;100.00;61273.97;5123306;27;20055;-69
2024/04/01 01:54:55;;;;;;;18.88;11.82;;;;;;;-145.63;100.00;61273.97;5100543;27;20039;-67
2024/04/01 01:57:22;;;;;;;18.15;11.68;;;;;;;-145.63;100.00;61273.97;5119304;27;20032;-68
2024/04/01 01:59:47;;;;;;;18.20;11.18;;;;;;;-145.63;100.00;61273.97;5114586;28;20449;-68
2024/04/01 02:02:15;;;;;;;17.42;11.50;;;;;;;-145.63;100.00;61273.97;5119709;27;20102;-67
2024/04/01 02:04:40;;;;;;;20.00;12.73;;;;;;;-145.63;100.00;61273.97;5123890;27;20088;-68
2024/04/01 02:07:06;;;;;;;19.00;12.45;;;;;;;-145.63;100.00;61273.97;5115065;27;20043;-69
2024/04/01 02:09:33;;;;;;;20.25;13.02;;;;;;;-145.63;100.00;61273.97;5133877;27;20720;-68
2024/04/01 02:11:59;;;;;;;20.23;11.82;;;;;;;-145.63;100.00;61273.97;5114794;28;20039;-68
2024/04/01 02:14:26;;;;;;;17.30;11.48;;;;;;;-145.63;100.00;61273.97;5114091;28;20130;-68
2024/04/01 02:16:51;;;;;;;14.75;11.70;;;;;;;-145.63;100.00;61273.97;5115296;27;20027;-67
2024/04/01 02:19:17;;;;;;;17.02;12.75;;;;;;;-145.63;100.00;61273.97;5114730;27;20573;-69
2024/04/01 02:21:46;;;;;;;19.05;13.13;;;;;;;-145.63;100.00;61273.97;5113752;28;20709;-68
2024/04/01 02:24:17;;;;;;;18.30;13.25;;;;;;;-145.63;100.00;61273.97;5118709;27;20052;-69
2024/04/01 02:26:44;;;;;;;17.33;11.82;;;;;;;-145.63;100.00;61273.97;5095041;28;20032;-68
2024/04/01 02:29:10;;;;;;;21.95;13.50;;;;;;;-145.63;100.00;61273.97;5099216;28;20506;-67
2024/04/01 02:31:37;;;;;;;17.90;12.77;;;;;;;-145.63;100.00;61273.97;5124006;27;20023;-66
2024/04/01 02:34:02;;;;;;;21.42;13.55;;;;;;;-145.63;100.00;61273.97;5120502;27;20028;-67
2024/04/01 02:36:28;;;;;;;20.38;13.45;;;;;;;-145.63;100.00;61273.97;5123637;27;20066;-66
2024/04/01 02:38:54;;;;;;;18.20;12.73;;;;;;;-145.63;100.00;61273.97;5114350;27;20031;-68
2024/04/01 02:41:20;;;;;;;16.50;12.40;;;;;;;-145.63;100.00;61273.97;5123395;27;20037;-68
2024/04/01 02:43:45;;;;;;;18.42;13.15;;;;;;;-145.63;100.00;61273.97;5130629;27;20031;-68
2024/04/01 02:46:12;;;;;;;21.77;13.02;;;;;;;-145.63;100.00;61273.97;5127609;27;20124;-69
2024/04/01 02:48:38;;;;;;;24.42;14.02;;;;;;;-145.63;100.00;61273.97;5115640;27;20469;-68
2024/04/01 02:51:04;;;;;;;19.15;12.80;;;;;;;-145.63;100.00;61273.97;5130820;27;20102;-68
2024/04/01 02:53:30;;;;;;;22.23;13.80;;;;;;;-145.63;100.00;61273.97;5098333;28;20491;-68
2024/04/01 02:55:56;;;;;;;22.83;13.20;;;;;;;-145.63;100.00;61273.97;5119454;27;20031;-69
2024/04/01 02:58:21;;;;;;;19.08;13.23;;;;;;;-145.63;100.00;61273.97;5128028;27;20122;-68
2024/04/01 03:00:47;;;;;;;21.60;13.07;;;;;;;-145.63;100.00;61273.97;5113187;28;20400;-67
2024/04/01 03:03:13;;;;;;;21.90;13.18;;;;;;;-145.63;100.00;61273.97;5114129;27;20402;-69
2024/04/01 03:05:39;;;;;;;22.52;13.32;;;;;;;-145.63;100.00;61273.97;5117115;27;20030;-67
2024/04/01 03:08:06;;;;;;;20.48;12.70;;;;;;;-145.63;100.00;61273.97;5120128;27;20366;-68
2024/04/01 03:10:33;;;;;;;24.40;13.82;;;;;;;-145.63;100.00;61273.97;5113158;27;20237;-67
2024/04/01 03:12:59;;;;;;;19.05;12.90;;;;;;;-145.63;100.00;61273.97;5113275;28;20035;-69
2024/04/01 03:15:25;;;;;;;21.98;13.57;;;;;;;-145.63;100.00;61273.97;5127408;27;20042;-68
2024/04/01 03:17:50;;;;;;;22.15;13.27;;;;;;;-145.63;100.00;61273.97;5113253;28;20035;-68
2024/04/01 03:20:18;;;;;;;21.63;13.27;;;;;;;-145.63;100.00;61273.97;5114261;27;20055;-68
2024/04/01 03:22:44;;;;;;;25.42;13.30;;;;;;;-145.63;100.00;61273.97;5112913;28;20314;-68
2024/04/01 03:25:10;;;;;;;24.48;12.90;;;;;;;-145.63;100.00;61273.97;5126531;27;20384;-69
2024/04/01 03:27:35;;;;;;;24.83;13.32;;;;;;;-145.63;100.00;61273.97;5113713;27;20381;-68
2024/04/01 03:30:01;;;;;;;23.05;13.38;;;;;;;-145.63;100.00;61273.97;5102603;27;20035;-70
2024/04/01 03:32:29;;;;;;;19.90;14.13;;;;;;;-145.63;100.00;61273.97;5114437;27;20083;-68
2024/04/01 03:34:55;;;;;;;18.45;12.13;;;;;;;-145.63;100.00;61273.97;5118109;27;20446;-68
2024/04/01 03:37:21;;;;;;;21.38;13.10;;;;;;;-145.63;100.00;61273.97;5112586;28;20043;-69
2024/04/01 03:39:47;;;;;;;20.27;14.02;;;;;;;-145.63;100.00;61273.97;5115287;27;20031;-69
2024/04/01 03:42:14;;;;;;;23.55;13.45;;;;;;;-145.63;100.00;61273.97;5129395;27;20516;-67
2024/04/01 03:44:40;;;;;;;26.27;13.38;;;;;;;-145.63;100.00;61273.97;5096859;27;20391;-66
2024/04/01 03:47:06;;;;;;;20.67;12.52;;;;;;;-145.63;100.00;61273.97;5117396;27;20031;-68
2024/04/01 03:49:31;;;;;;;23.85;12.40;;;;;;;-145.63;100.00;61273.97;5112568;28;20107;-69
2024/04/01 03:51:58;;;;;;;19.75;12.73;;;;;;;-145.63;100.00;61273.97;5111979;28;20028;-69
2024/04/01 03:54:24;;;;;;;28.48;13.73;;;;;;;-145.63;100.00;61273.97;5112958;28;20028;-68
2024/04/01 03:56:49;;;;;;;23.67;12.60;;;;;;;-145.63;100.00;61273.97;5131277;27;20033;-68
2024/04/01 03:59:16;;;;;;;24.20;12.85;;;;;;;-145.63;100.00;61273.97;5117515;27;20023;-69
2024/04/01 04:01:47;;;;;;;23.05;13.15;;;;;;;-145.63;100.00;61273.97;5100378;28;20028;-68
2024/04/01 04:04:13;;;;;;;24.92;13.30;;;;;;;-145.63;100.00;61273.97;5113111;28;20494;-69
2024/04/01 04:06:40;;;;;;;23.20;13.30;;;;;;;-145.63;100.00;61273.97;5112058;27;20156;-68
2024/04/01 04:09:27;;;;;;;23.80;12.73;;;;;;;-145.63;100.00;61273.97;5115067;27;20407;-67
2024/04/01 04:11:52;;;;;;;21.75;13.00;;;;;;;-145.63;100.00;61273.97;5112172;27;20047;-67
2024/04/01 04:14:19;;;;;;;19.45;11.95;;;;;;;-145.63;100.00;61273.97;5112483;28;20035;-69
2024/04/01 04:16:47;;;;;;;21.98;12.48;;;;;;;-145.63;100.00;61273.97;5111633;28;20430;-66
2024/04/01 04:19:14;;;;;;;19.98;12.85;;;;;;;-145.63;100.00;61273.97;5118462;27;20406;-67
2024/04/01 04:21:40;;;;;;;19.65;12.15;;;;;;;-145.63;100.00;61273.97;5130484;27;20023;-68
2024/04/01 04:24:06;;;;;;;25.50;12.25;;;;;;;-145.63;100.00;61273.97;5112387;28;20043;-69
2024/04/01 04:26:32;;;;;;;21.13;12.68;;;;;;;-145.63;100.00;61273.97;5113196;27;20484;-68
2024/04/01 04:28:58;;;;;;;24.27;13.35;;;;;;;-145.63;100.00;61273.97;5133677;27;20039;-68
2024/04/01 04:31:24;;;;;;;26.45;12.85;;;;;;;-145.63;100.00;61273.97;5136907;27;20027;-66
2024/04/01 04:33:50;;;;;;;24.83;12.10;;;;;;;-145.63;100.00;61273.97;5118754;28;20035;-67
2024/04/01 04:36:16;;;;;;;23.10;12.93;;;;;;;-145.63;100.00;61273.97;5115366;27;20027;-67
2024/04/01 04:38:41;;;;;;;29.25;13.07;;;;;;;-145.63;100.00;61273.97;5112518;28;20039;-68
2024/04/01 04:41:07;;;;;;;23.75;12.52;;;;;;;-145.63;100.00;61273.97;5121799;27;20448;-69
2024/04/01 04:43:33;;;;;;;28.05;12.68;;;;;;;-145.63;100.00;61273.97;5123566;27;20057;-68
2024/04/01 04:45:59;;;;;;;26.63;12.82;;;;;;;-145.63;100.00;61273.97;5095128;28;20036;-68
2024/04/01 04:48:28;;;;;;;28.63;13.40;;;;;;;-145.63;100.00;61273.97;5131511;28;20059;-66
2024/04/01 04:50:55;;;;;;;25.27;13.05;;;;;;;-145.63;100.00;61273.97;5117357;28;20108;-69
2024/04/01 04:53:20;;;;;;;28.63;13.27;;;;;;;-145.63;100.00;61273.97;5098081;28;20038;-69
2024/04/01 04:55:46;;;;;;;27.88;12.88;;;;;;;-145.63;100.00;61273.97;5119858;28;20076;-68
2024/04/01 04:58:12;;;;;;;20.05;11.30;;;;;;;-145.63;100.00;61273.97;5125196;28;20584;-70
2024/04/01 05:00:37;;;;;;;23.00;13.10;;;;;;;-145.63;100.00;61273.97;5128136;28;20046;-67
2024/04/01 05:03:07;;;;;;;23.75;12.23;;;;;;;-145.63;100.00;61273.97;5125967;28;20384;-66
2024/04/01 05:05:34;;;;;;;30.52;13.10;;;;;;;-145.63;100.00;61273.97;5110975;28;20023;-69
2024/04/01 05:08:03;;;;;;;23.88;12.82;;;;;;;-145.63;100.00;61273.97;5113016;28;20046;-67
2024/04/01 05:10:30;;;;;;;29.10;13.07;;;;;;;-145.63;100.00;61273.97;5127707;28;20058;-68
2024/04/01 05:12:56;;;;;;;25.08;12.02;;;;;;;-145.63;100.00;61273.97;5099543;28;20564;-66
2024/04/01 05:15:23;;;;;;;29.67;12.68;;;;;;;-145.63;100.00;61273.97;5115428;28;20151;-66
2024/04/01 05:17:49;;;;;;;32.08;12.48;;;;;;;-145.63;100.00;61273.97;5111846;28;20039;-67
2024/04/01 05:20:15;;;;;;;24.42;12.35;;;;;;;-145.63;100.00;61273.97;5106569;28;20337;-68
2024/04/01 05:22:41;;;;;;;23.73;11.73;;;;;;;-145.63;100.00;61273.97;5122372;28;20046;-66
2024/04/01 05:25:07;;;;;;;25.85;12.98;;;;;;;-145.63;100.00;61273.97;5125733;28;20515;-66
2024/04/01 05:27:32;;;;;;;23.08;11.80;;;;;;;-145.63;100.00;61273.97;5112527;28;20541;-67
2024/04/01 05:30:03;;;;;;;29.88;11.93;;;;;;;-145.63;100.00;61273.97;5111733;28;20036;-67
2024/04/01 05:32:32;;;;;;;27.35;11.98;;;;;;;-145.63;100.00;61273.97;5114160;28;20028;-66
2024/04/01 05:34:58;;;;;;;22.67;11.40;;;;;;;-145.63;100.00;61273.97;5111268;28;20171;-67
2024/04/01 05:37:25;;;;;;;24.48;12.27;;;;;;;-145.63;100.00;61273.97;5122398;28;20032;-67
2024/04/01 05:39:50;;;;;;;19.13;12.45;;;;;;;-145.63;100.00;61273.97;5092696;28;20089;-67
2024/04/01 05:42:17;;;;;;;22.67;11.48;;;;;;;-145.63;100.00;61273.97;5113712;28;20450;-67
2024/04/01 05:44:43;;;;;;;30.33;12.95;;;;;;;-145.63;100.00;61273.97;5096605;28;20364;-67
2024/04/01 05:47:09;;;;;;;26.05;11.68;;;;;;;-145.63;100.00;61273.97;5117720;27;20036;-67
2024/04/01 05:49:34;;;;;;;26.23;11.93;;;;;;;-145.63;100.00;61273.97;5114448;27;20031;-66
2024/04/01 05:52:00;;;;;;;33.50;12.73;;;;;;;-145.63;100.00;61273.97;5114670;28;20031;-68
2024/04/01 05:54:26;;;;;;;33.45;11.48;;;;;;;-145.63;100.00;61273.97;5127862;27;20033;-67
2024/04/01 05:56:51;;;;;;;22.42;11.70;;;;;;;-145.63;100.00;61273.97;5110560;27;20042;-67
2024/04/01 05:59:17;;;;;;;44.47;13.20;;;;;;;-145.63;100.00;61273.97;5133105;27;20092;-67
2024/04/01 06:01:42;;;;;;;26.70;10.95;;;;;;;-145.63;100.00;61273.97;5125821;27;20071;-68
2024/04/01 06:04:08;;;;;;;34.08;11.98;;;;;;;-145.63;100.00;61273.97;5115292;28;20042;-67
2024/04/01 06:06:34;;;;;;;25.50;10.88;;;;;;;-145.63;100.00;61273.97;5114173;28;20049;-68
2024/04/01 06:08:59;;;;;;;24.40;10.80;;;;;;;-145.63;100.00;61273.97;5120510;27;20110;-67
2024/04/01 06:11:25;;;;;;;22.08;10.23;;;;;;;-145.63;100.00;61273.97;5119762;27;20035;-65
2024/04/01 06:13:50;;;;;;;22.40;10.98;;;;;;;-145.63;100.00;61273.97;5118064;27;20026;-66
2024/04/01 06:16:16;;;;;;;23.05;9.70;;;;;;;-145.63;100.00;61273.97;5129734;27;20522;-67
2024/04/01 06:18:41;;;;;;;25.27;10.63;;;;;;;-145.63;100.00;61273.97;5114508;27;20153;-67
2024/04/01 06:21:07;;;;;;;24.17;11.13;;;;;;;-145.63;100.00;61273.97;5114284;28;20034;-67
2024/04/01 06:23:33;;;;;;;19.95;9.65;;;;;;;-145.63;100.00;61273.97;5115275;27;20055;-68
2024/04/01 06:25:58;;;;;;;21.77;10.52;;;;;;;-145.63;100.00;61273.97;5114835;28;20055;-69
2024/04/01 06:28:24;;;;;;;25.05;9.85;;;;;;;-145.63;100.00;61273.97;5103214;27;20039;-68
2024/04/01 06:30:50;;;;;;;23.83;9.18;;;;;;;-145.63;100.00;61273.97;5126092;27;20066;-67
2024/04/01 06:33:15;;;;;;;26.63;10.40;;;;;;;-145.63;100.00;61273.97;5114181;28;20063;-67
2024/04/01 06:35:41;;;;;;;20.63;9.35;;;;;;;-145.63;100.00;61273.97;5115566;27;20077;-68
2024/04/01 06:38:08;;;;;;;23.92;10.02;;;;;;;-145.63;100.00;61273.97;5114510;28;20111;-68
2024/04/01 06:40:35;;;;;;;21.98;10.00;;;;;;;-145.63;100.00;61273.97;5121610;27;20031;-67
2024/04/01 06:43:01;;;;;;;26.80;9.52;;;;;;;-145.63;100.00;61273.97;5113032;28;20085;-67
2024/04/01 06:45:26;;;;;;;20.45;11.13;;;;;;;-145.63;100.00;61273.97;5121760;27;20019;-68
2024/04/01 06:47:52;;;;;;;23.40;9.30;;;;;;;-145.63;100.00;61273.97;5125450;27;20387;-68
2024/04/01 06:50:18;;;;;;;24.40;9.70;;;;;;;-145.63;100.00;61273.97;5122216;27;20054;-67
2024/04/01 06:52:43;;;;;;;23.80;9.15;;;;;;;-145.63;100.00;61273.97;5104593;28;20031;-68
2024/04/01 06:55:09;;;;;;;23.23;13.38;;;;;;;-145.63;100.00;61273.97;5113383;28;20035;-67
2024/04/01 06:57:35;;;;;;;29.67;11.15;;;;;;;-145.63;100.00;61273.97;5095567;28;20112;-68
2024/04/01 07:00:00;;;;;;;23.38;10.50;;;;;;;-145.63;100.00;61273.97;5095820;28;20492;-71
2024/04/01 07:02:26;;;;;;;22.48;9.75;;;;;;;-145.63;100.00;61273.97;5128876;27;20036;-68
2024/04/01 07:04:52;;;;;;;20.08;8.88;;;;;;;-145.63;100.00;61273.97;5123475;27;20027;-68
2024/04/01 07:07:19;;;;;;;24.65;9.65;;;;;;;-145.63;100.00;61273.97;5113652;28;20067;-69
2024/04/01 07:09:46;;;;;;;24.90;9.13;;;;;;;-145.63;100.00;61273.97;5114084;28;20076;-68
2024/04/01 07:12:12;;;;;;;22.40;9.02;;;;;;;-145.63;100.00;61273.97;5132843;27;20035;-69
2024/04/01 07:14:37;;;;;;;21.30;9.45;;;;;;;-145.63;100.00;61273.97;5132090;27;20405;-68
2024/04/01 07:17:03;;;;;;;16.05;9.00;;;;;;;-145.63;100.00;61273.97;5113944;27;20024;-69
2024/04/01 07:19:29;;;;;;;28.45;9.75;;;;;;;-145.63;100.00;61273.97;5118198;27;20512;-69
2024/04/01 07:21:54;;;;;;;20.15;8.80;;;;;;;-145.63;100.00;61273.97;5124484;27;20035;-69
2024/04/01 07:24:20;;;;;;;23.48;9.55;;;;;;;-145.63;100.00;61273.97;5124064;27;20044;-68
2024/04/01 07:26:45;;;;;;;20.65;8.25;;;;;;;-145.63;100.00;61273.97;5112160;28;20075;-68
2024/04/01 07:29:11;;;;;;;22.70;8.40;;;;;;;-145.63;100.00;61273.97;5112376;28;20124;-68
2024/04/01 07:31:36;;;;;;;18.02;8.20;;;;;;;-145.63;100.00;61273.97;5120808;27;20371;-68
2024/04/01 07:34:02;;;;;;;24.23;8.75;;;;;;;-145.63;100.00;61273.97;5130419;27;20023;-68
2024/04/01 07:36:28;;;;;;;20.85;8.60;;;;;;;-145.63;100.00;61273.97;5113062;28;20067;-69
2024/04/01 07:38:56;;;;;;;25.23;8.32;;;;;;;-145.63;100.00;61273.97;5115496;27;20104;-69
2024/04/01 07:41:23;;;;;;;26.65;8.38;;;;;;;-145.63;100.00;61273.97;5084306;27;20027;-68
2024/04/01 07:43:49;;;;;;;19.73;8.30;;;;;;;-145.63;100.00;61273.97;5130812;27;20109;-71
2024/04/01 07:46:14;;;;;;;16.50;8.23;;;;;;;-145.63;100.00;61273.97;5129105;27;20413;-69
2024/04/01 07:48:40;;;;;;;23.08;9.10;;;;;;;-145.63;100.00;61273.97;5132829;27;20056;-69
2024/04/01 07:51:05;;;;;;;17.77;8.38;;;;;;;-145.63;100.00;61273.97;5131700;27;20491;-69
2024/04/01 07:53:32;;;;;;;23.83;8.05;;;;;;;-145.63;100.00;61273.97;5133306;27;20038;-68
2024/04/01 07:55:58;;;;;;;22.75;8.75;;;;;;;-145.63;100.00;61273.97;5129231;27;20031;-70
2024/04/01 07:58:23;;;;;;;25.08;7.97;;;;;;;-145.63;100.00;61273.97;5127627;27;20356;-70
2024/04/01 08:00:50;;;;;;;16.95;7.47;;;;;;;-145.63;100.00;61273.97;5111924;28;20047;-68
2024/04/01 08:03:16;;;;;;;17.95;6.88;;;;;;;-145.63;100.00;61273.97;5112325;28;20038;-68
2024/04/01 08:05:42;;;;;;;23.00;7.97;;;;;;;-145.63;100.00;61273.97;5126053;27;20031;-68
2024/04/01 08:08:09;;;;;;;23.48;7.20;;;;;;;-145.63;100.00;61273.97;5130010;27;20038;-69
2024/04/01 08:10:36;;;;;;;30.00;7.32;;;;;;;-145.63;100.00;61273.97;5132009;27;20450;-70
2024/04/01 08:13:01;;;;;;;40.30;8.10;;;;;;;-145.63;100.00;61273.97;5130872;27;20055;-68
2024/04/01 08:15:27;;;;;;;14.73;6.78;;;;;;;-145.63;100.00;61273.97;5117017;27;20368;-70
2024/04/01 08:17:53;;;;;;;17.00;7.28;;;;;;;-145.63;100.00;61273.97;5118394;27;20035;-70
2024/04/01 08:20:19;;;;;;;19.17;7.10;;;;;;;-145.63;100.00;61273.97;5125432;27;20091;-70
2024/04/01 08:22:44;;;;;;;16.08;6.35;;;;;;;-145.63;100.00;61273.97;5124351;27;20048;-70
2024/04/01 08:25:10;;;;;;;27.55;7.85;;;;;;;-145.63;100.00;61273.97;5128151;27;20043;-70
2024/04/01 08:27:36;;;;;;;16.95;6.32;;;;;;;-145.63;100.00;61273.97;5132551;27;20399;-69
2024/04/01 08:30:02;;;;;;;19.40;7.18;;;;;;;-145.63;100.00;61273.97;5113496;27;20115;-69
2024/04/01 08:32:29;;;;;;;16.77;6.63;;;;;;;-145.63;100.00;61273.97;5112134;28;20032;-69
2024/04/01 08:34:55;;;;;;;24.15;6.82;;;;;;;-145.63;100.00;61273.97;5121399;27;20031;-67
2024/04/01 08:37:21;;;;;;;18.95;6.03;;;;;;;-145.63;100.00;61273.97;5125866;27;20038;-67
2024/04/01 08:39:46;;;;;;;15.93;6.15;;;;;;;-145.63;100.00;61273.97;5124998;27;20067;-68
2024/04/01 08:42:18;;;;;;;17.75;6.13;;;;;;;-145.63;100.00;61273.97;5129220;27;20031;-68
2024/04/01 08:44:46;;;;;;;;;;;;;;;-145.63;100.00;61273.97;5116174;28;20028;-68
2024/04/01 08:47:14;;;;;;;16.80;5.50;;;;;;;-145.63;100.00;61273.97;5111811;28;19912;-68
2024/04/01 08:49:48;;;;;;;15.43;6.13;;;;;;;-145.63;100.00;61273.97;5101282;28;20142;-67
2024/04/01 08:52:20;;;;;;;20.75;5.68;;;;;;;-145.63;100.00;61273.97;5121838;28;20025;-69
2024/04/01 08:54:46;;;;;;;15.90;5.68;;;;;;;-145.63;100.00;61273.97;5135281;28;20103;-68
2024/04/01 08:57:12;;;;;;;14.77;5.10;;;;;;;-145.63;100.00;61273.97;5093616;28;20120;-68
2024/04/01 08:59:38;;;;;;;16.33;5.95;;;;;;;-145.63;100.00;61273.97;5127213;28;20035;-68
2024/04/01 09:02:04;;;;;;;15.93;5.63;;;;;;;-145.63;100.00;61273.97;5125281;28;20023;-68
2024/04/01 09:04:30;;;;;;;14.10;5.07;;;;;;;-145.63;100.00;61273.97;5127546;28;20042;-67
2024/04/01 09:06:57;;;;;;;16.42;4.72;;;;;;;-145.63;100.00;61273.97;5111322;28;20031;-71
2024/04/01 09:09:23;;;;;;;14.38;4.35;;;;;;;-145.63;100.00;61273.97;5116486;28;20106;-67
2024/04/01 09:11:50;;;;;;;14.32;4.93;;;;;;;-145.63;100.00;61273.97;5128347;28;20118;-67
2024/04/01 09:14:16;;;;;;;18.90;4.85;;;;;;;-145.63;100.00;61273.97;5120372;28;20035;-68
2024/04/01 09:16:42;;;;;;;17.25;4.45;;;;;;;-145.63;100.00;61273.97;5113078;28;20019;-67
2024/04/01 09:19:09;;;;;;;14.52;4.75;;;;;;;-145.63;100.00;61273.97;5117700;27;20034;-67
2024/04/01 09:21:35;;;;;;;14.38;4.78;;;;;;;-145.63;100.00;61273.97;5136402;27;20031;-68
2024/04/01 09:24:02;;;;;;;16.38;4.85;;;;;;;-145.63;100.00;61273.97;5117076;27;20073;-69
2024/04/01 09:26:29;;;;;;;15.25;4.55;;;;;;;-145.63;100.00;61273.97;5115526;28;20059;-73
2024/04/01 09:28:55;;;;;;;14.60;3.90;;;;;;;-145.63;100.00;61273.97;5131462;27;20073;-70
2024/04/01 09:31:20;;;;;;;12.27;3.50;;;;;;;-145.63;100.00;61273.97;5119421;27;20046;-67
2024/04/01 09:33:46;;;;;;;14.77;4.07;;;;;;;-145.63;100.00;61273.97;5135227;27;20035;-68
2024/04/01 09:36:12;;;;;;;13.40;3.90;;;;;;;-145.63;100.00;61273.97;5116074;27;20141;-68
2024/04/01 09:38:39;;;;;;;13.63;3.92;;;;;;;-145.63;100.00;61273.97;5116412;27;20042;-69
2024/04/01 09:41:04;;;;;;;15.93;4.03;;;;;;;-145.63;100.00;61273.97;5130929;27;20151;-69
2024/04/01 09:43:31;;;;;;;17.70;4.28;;;;;;;-145.63;100.00;61273.97;5130401;27;20050;-73
2024/04/01 09:45:58;;;;;;;13.27;4.00;;;;;;;-145.63;100.00;61273.97;5123044;27;20460;-71
2024/04/01 09:48:26;;;;;;;13.13;3.97;;;;;;;-145.63;100.00;61273.97;5132679;27;20039;-66
2024/04/01 09:50:56;;;;;;;15.93;4.40;;;;;;;-145.63;100.00;61273.97;5129941;27;20441;-69
2024/04/01 09:53:24;;;;;;;19.05;4.25;;;;;;;-145.63;100.00;61273.97;5124760;27;20027;-68
2024/04/01 09:55:55;;;;;;;12.75;4.78;;;;;;;-145.63;100.00;61273.97;5135040;27;20066;-69
2024/04/01 10:08:08;;;;;;;21.75;5.70;;;;;;;-145.63;20.08;38234.25;5170322;22;20060;-67
2024/04/01 10:11:01;;;;;;;23.08;5.72;;;;;;;-145.63;19.89;38222.53;5055395;28;20041;-67
2024/04/01 10:13:39;;;;;;;18.35;5.53;;;;;;;-145.63;20.01;38214.72;5047439;28;20025;-68
2024/04/01 10:16:22;;;;;;;24.75;5.97;;;;;;;-145.63;20.26;38150.19;5056795;28;20029;-68
2024/04/01 10:19:17;;;;;;;20.77;5.28;;;;;;;-145.63;20.27;38314.44;5028317;28;20026;-69
2024/04/01 10:21:55;;;;;;;22.52;5.22;;;;;;;-145.63;20.53;38244.03;5060130;28;20086;-69
2024/04/01 10:24:48;;;;;;;21.10;5.35;;;;;;;-145.63;20.42;38204.94;5056420;28;20052;-66
2024/04/01 10:27:40;;;;;;;17.45;5.53;;;;;;;-145.63;20.64;38265.53;5052092;28;20442;-67
2024/04/01 10:30:43;;;;;;;24.45;5.97;;;;;;;-145.63;20.64;38195.16;5050201;28;20466;-68
2024/04/01 10:33:09;;;;;;;14.63;5.47;;;;;;;-145.63;20.79;38183.44;5029980;28;20037;-68
2024/04/01 10:36:06;;;;;;;26.02;6.10;;;;;;;-145.63;21.49;38138.47;5049343;28;20085;-68
2024/04/01 10:38:53;;;;;;;23.92;6.13;;;;;;;-145.63;20.95;38183.44;5056233;28;20033;-67
2024/04/01 10:41:46;;;;;;;20.02;6.10;;;;;;;-145.63;21.23;38208.84;5052202;28;20039;-67
2024/04/01 10:44:12;;;;;;;17.27;5.78;;;;;;;-145.63;21.48;38193.19;5033158;28;20155;-67
2024/04/01 10:47:16;;;;;;;25.70;6.25;;;;;;;-145.63;21.44;38269.47;5047610;28;20441;-65
2024/04/01 10:50:09;;;;;;;18.95;5.53;;;;;;;-145.63;21.55;38179.50;5047336;28;20052;-68
2024/04/01 10:53:16;;;;;;;22.35;6.35;;;;;;;-145.63;21.19;38171.69;5064444;28;20029;-67
2024/04/01 10:56:16;;;;;;;21.70;5.80;;;;;;;-145.63;21.23;38187.34;5046139;28;20041;-68
2024/04/01 10:58:50;;;;;;;17.42;5.78;;;;;;;-145.63;21.35;38187.34;5047363;28;20136;-68
2024/04/01 11:01:21;;;;;;;22.55;6.00;;;;;;;-145.63;20.62;38179.50;5045684;28;20056;-68
2024/04/01 11:03:53;;;;;;;27.48;5.90;;;;;;;-145.63;20.95;38171.69;5047625;28;20029;-68
2024/04/01 11:06:35;;;;;;;16.55;5.15;;;;;;;-145.63;20.73;38195.16;5045993;28;20079;-68
2024/04/01 11:09:13;;;;;;;24.45;6.68;;;;;;;-145.63;20.17;38206.88;5041150;28;20093;-69
2024/04/01 11:11:55;;;;;;;23.45;6.43;;;;;;;-145.63;20.17;38208.84;5034917;28;20080;-70
2024/04/01 11:14:21;;;;;;;18.80;5.32;;;;;;;-145.63;20.04;38222.53;5033760;28;20025;-67